Time,TemperatureF,DewpointF,PressureIn,WindDirection,WindDirectionDegrees,WindSpeedMPH,WindSpeedGustMPH,Humidity,HourlyPrecipIn,Conditions,Clouds,dailyrainin,SoftwareType,DateUTC
2013-01-21 00:00:00,30.2,12.8,30.02,SSE,154,2.0,2.0,48,0.00,,,0.00,Wunderground v.1.15,2013-01-21 05:00:00,
2013-01-21 00:05:00,30.0,12.2,30.02,ESE,114,2.0,2.0,47,0.00,,,0.00,Wunderground v.1.15,2013-01-21 05:05:00,
2013-01-21 00:10:00,29.5,11.7,30.02,East,97,2.0,2.0,47,0.00,,,0.00,Wunderground v.1.15,2013-01-21 05:10:00,
2013-01-21 00:20:00,29.4,13.0,30.02,WSW,244,3.0,3.0,50,0.00,,,0.00,Wunderground v.1.15,2013-01-21 05:20:00,
2013-01-21 00:30:00,29.5,12.2,30.03,ENE,61,2.0,2.0,48,0.00,,,0.00,Wunderground v.1.15,2013-01-21 05:30:00,
2013-01-21 00:40:00,29.1,12.3,30.02,East,82,1.0,2.0,49,0.00,,,0.00,Wunderground v.1.15,2013-01-21 05:40:00,
2013-01-21 00:50:00,29.8,12.5,30.03,SSW,211,3.0,6.0,48,0.00,,,0.00,Wunderground v.1.15,2013-01-21 05:50:00,
2013-01-21 01:00:00,29.6,11.8,30.03,SSE,149,2.0,4.0,47,0.00,,,0.00,Wunderground v.1.15,2013-01-21 06:00:00,
2013-01-21 01:10:00,29.2,11.9,30.03,South,182,2.0,2.0,48,0.00,,,0.00,Wunderground v.1.15,2013-01-21 06:10:00,
2013-01-21 01:20:00,29.7,12.4,30.03,SSW,211,2.0,2.0,48,0.00,,,0.00,Wunderground v.1.15,2013-01-21 06:20:00,
2013-01-21 01:30:00,29.6,11.8,30.04,South,178,3.0,5.0,47,0.00,,,0.00,Wunderground v.1.15,2013-01-21 06:30:00,
2013-01-21 01:40:00,29.2,11.4,30.04,South,190,3.0,7.0,47,0.00,,,0.00,Wunderground v.1.15,2013-01-21 06:40:00,
2013-01-21 01:50:00,29.5,11.2,30.04,SW,225,3.0,5.0,46,0.00,,,0.00,Wunderground v.1.15,2013-01-21 06:50:00,
2013-01-21 02:00:00,29.3,12.5,30.05,SSE,154,2.0,2.0,49,0.00,,,0.00,Wunderground v.1.15,2013-01-21 07:00:00,
2013-01-21 02:10:00,29.7,12.4,30.05,South,188,2.0,2.0,48,0.00,,,0.00,Wunderground v.1.15,2013-01-21 07:10:00,
2013-01-21 02:20:00,29.3,11.1,30.05,NW,319,3.0,3.0,46,0.00,,,0.00,Wunderground v.1.15,2013-01-21 07:20:00,
2013-01-21 02:30:00,29.6,12.8,30.06,SSW,201,3.0,3.0,49,0.00,,,0.00,Wunderground v.1.15,2013-01-21 07:30:00,
2013-01-21 02:40:00,28.9,11.6,30.06,SE,142,1.0,1.0,48,0.00,,,0.00,Wunderground v.1.15,2013-01-21 07:40:00,
2013-01-21 02:50:00,28.2,11.0,30.06,South,170,1.0,5.0,48,0.00,,,0.00,Wunderground v.1.15,2013-01-21 07:50:00,
2013-01-21 03:00:00,28.2,11.9,30.06,SW,215,1.0,4.0,50,0.00,,,0.00,Wunderground v.1.15,2013-01-21 08:00:00,
2013-01-21 03:10:00,28.5,12.2,30.06,SW,214,2.0,2.0,50,0.00,,,0.00,Wunderground v.1.15,2013-01-21 08:10:00,
2013-01-21 03:20:00,28.0,11.7,30.06,South,186,0.0,2.0,50,0.00,,,0.00,Wunderground v.1.15,2013-01-21 08:20:00,
2013-01-21 03:30:00,28.5,14.8,30.06,South,175,2.0,2.0,56,0.00,,,0.00,Wunderground v.1.15,2013-01-21 08:30:00,
2013-01-21 03:40:00,29.2,13.7,30.06,SSE,158,3.0,3.0,52,0.00,,,0.00,Wunderground v.1.15,2013-01-21 08:40:00,
2013-01-21 03:50:00,28.9,13.0,30.06,South,174,2.0,3.0,51,0.00,,,0.00,Wunderground v.1.15,2013-01-21 08:50:00,
2013-01-21 04:00:00,28.9,13.0,30.06,SSE,160,3.0,3.0,51,0.00,,,0.00,Wunderground v.1.15,2013-01-21 09:00:00,
2013-01-21 04:10:00,28.0,12.2,30.06,WSW,244,1.0,1.0,51,0.00,,,0.00,Wunderground v.1.15,2013-01-21 09:10:00,
2013-01-21 04:20:00,27.5,12.6,30.06,South,180,1.0,1.0,53,0.00,,,0.00,Wunderground v.1.15,2013-01-21 09:20:00,
2013-01-21 04:30:00,27.7,14.8,30.06,South,188,1.0,3.0,58,0.00,,,0.00,Wunderground v.1.15,2013-01-21 09:30:00,
2013-01-21 04:40:00,27.8,12.9,30.06,South,180,1.0,1.0,53,0.00,,,0.00,Wunderground v.1.15,2013-01-21 09:40:00,
2013-01-21 04:50:00,26.7,13.5,30.06,WSW,237,1.0,1.0,57,0.00,,,0.00,Wunderground v.1.15,2013-01-21 09:50:00,
2013-01-21 05:00:00,25.8,13.4,30.06,WSW,238,0.0,0.0,59,0.00,,,0.00,Wunderground v.1.15,2013-01-21 10:00:00,
2013-01-21 05:10:00,25.1,14.3,30.06,WSW,238,0.0,0.0,63,0.00,,,0.00,Wunderground v.1.15,2013-01-21 10:10:00,
2013-01-21 05:20:00,24.7,14.2,30.07,WSW,238,0.0,0.0,64,0.00,,,0.00,Wunderground v.1.15,2013-01-21 10:20:00,
2013-01-21 05:30:00,24.1,14.7,30.07,SSW,212,0.0,1.0,67,0.00,,,0.00,Wunderground v.1.15,2013-01-21 10:30:00,
2013-01-21 05:40:00,23.9,14.2,30.06,SW,232,0.0,0.0,66,0.00,,,0.00,Wunderground v.1.15,2013-01-21 10:40:00,
2013-01-21 05:50:00,23.5,13.8,30.07,SSW,194,0.0,0.0,66,0.00,,,0.00,Wunderground v.1.15,2013-01-21 10:50:00,
2013-01-21 06:00:00,23.2,14.2,30.07,SSW,194,0.0,0.0,68,0.00,,,0.00,Wunderground v.1.15,2013-01-21 11:00:00,
2013-01-21 06:10:00,23.1,14.8,30.07,SSW,194,0.0,0.0,70,0.00,,,0.00,Wunderground v.1.15,2013-01-21 11:10:00,
2013-01-21 06:20:00,23.0,14.3,30.08,SSW,194,0.0,0.0,69,0.00,,,0.00,Wunderground v.1.15,2013-01-21 11:20:00,
2013-01-21 06:30:00,23.0,14.7,30.08,SSW,194,0.0,0.0,70,0.00,,,0.00,Wunderground v.1.15,2013-01-21 11:30:00,
2013-01-21 06:40:00,23.2,14.9,30.08,SSW,194,0.0,0.0,70,0.00,,,0.00,Wunderground v.1.15,2013-01-21 11:40:00,
2013-01-21 06:50:00,23.3,15.0,30.08,SSW,194,0.0,0.0,70,0.00,,,0.00,Wunderground v.1.15,2013-01-21 11:50:00,
2013-01-21 07:00:00,23.4,15.1,30.07,SSW,194,0.0,0.0,70,0.00,,,0.00,Wunderground v.1.15,2013-01-21 12:00:00,
2013-01-21 07:10:00,23.6,15.2,30.08,South,182,0.0,0.0,70,0.00,,,0.00,Wunderground v.1.15,2013-01-21 12:10:00,
2013-01-21 07:20:00,23.6,15.2,30.08,SSE,149,0.0,0.0,70,0.00,,,0.00,Wunderground v.1.15,2013-01-21 12:20:00,
2013-01-21 07:30:00,23.7,15.7,30.08,SE,131,0.0,1.0,71,0.00,,,0.00,Wunderground v.1.15,2013-01-21 12:30:00,
2013-01-21 07:40:00,24.0,15.6,30.08,SE,128,0.0,1.0,70,0.00,,,0.00,Wunderground v.1.15,2013-01-21 12:40:00,
2013-01-21 07:50:00,24.3,15.9,30.07,ESE,109,0.0,1.0,70,0.00,,,0.00,Wunderground v.1.15,2013-01-21 12:50:00,
2013-01-21 08:00:00,24.7,15.6,30.07,ESE,109,0.0,0.0,68,0.00,,,0.00,Wunderground v.1.15,2013-01-21 13:00:00,
2013-01-21 08:10:00,25.0,15.9,30.08,ESE,108,0.0,0.0,68,0.00,,,0.00,Wunderground v.1.15,2013-01-21 13:10:00,
2013-01-21 08:20:00,25.4,15.3,30.08,ESE,108,0.0,0.0,65,0.00,,,0.00,Wunderground v.1.15,2013-01-21 13:20:00,
2013-01-21 08:30:00,25.8,14.9,30.08,ESE,108,0.0,0.0,63,0.00,,,0.00,Wunderground v.1.15,2013-01-21 13:30:00,
2013-01-21 08:45:00,26.5,14.9,30.08,ESE,106,0.0,0.0,61,0.00,,,0.00,Wunderground v.1.15,2013-01-21 13:45:00,
2013-01-21 08:50:00,26.7,15.0,30.08,ESE,106,0.0,0.0,61,0.00,,,0.00,Wunderground v.1.15,2013-01-21 13:50:00,
2013-01-21 09:00:00,27.1,14.7,30.09,SW,223,0.0,0.0,59,0.00,,,0.00,Wunderground v.1.15,2013-01-21 14:00:00,
2013-01-21 09:10:00,28.1,14.8,30.08,SSW,208,1.0,1.0,57,0.00,,,0.00,Wunderground v.1.15,2013-01-21 14:10:00,
2013-01-21 09:20:00,28.8,13.8,30.08,South,174,1.0,2.0,53,0.00,,,0.00,Wunderground v.1.15,2013-01-21 14:20:00,
2013-01-21 09:30:00,29.8,13.4,30.08,SW,218,3.0,3.0,50,0.00,,,0.00,Wunderground v.1.15,2013-01-21 14:30:00,
2013-01-21 09:40:00,30.3,13.9,30.08,SW,233,2.0,3.0,50,0.00,,,0.00,Wunderground v.1.15,2013-01-21 14:40:00,
2013-01-21 09:50:00,29.9,14.4,30.09,South,176,2.0,2.0,52,0.00,,,0.00,Wunderground v.1.15,2013-01-21 14:50:00,
2013-01-21 10:00:00,31.0,13.6,30.08,SW,221,3.0,3.0,48,0.00,,,0.00,Wunderground v.1.15,2013-01-21 15:00:00,
2013-01-21 10:10:00,31.4,13.5,30.08,SW,228,3.0,3.0,47,0.00,,,0.00,Wunderground v.1.15,2013-01-21 15:10:00,
2013-01-21 10:20:00,30.7,12.3,30.08,South,187,2.0,5.0,46,0.00,,,0.00,Wunderground v.1.15,2013-01-21 15:20:00,
2013-01-21 10:30:00,31.0,12.6,30.08,SSW,204,3.0,3.0,46,0.00,,,0.00,Wunderground v.1.15,2013-01-21 15:30:00,
2013-01-21 10:40:00,30.6,12.7,30.07,SSW,207,2.0,2.0,47,0.00,,,0.00,Wunderground v.1.15,2013-01-21 15:40:00,
2013-01-21 10:50:00,31.6,13.2,30.06,SW,230,3.0,3.0,46,0.00,,,0.00,Wunderground v.1.15,2013-01-21 15:50:00,
2013-01-21 11:00:00,31.9,12.9,30.05,SSE,153,2.0,2.0,45,0.00,,,0.00,Wunderground v.1.15,2013-01-21 16:00:00,
2013-01-21 11:10:00,31.8,12.8,30.04,SW,232,2.0,3.0,45,0.00,,,0.00,Wunderground v.1.15,2013-01-21 16:10:00,
2013-01-21 11:20:00,31.9,12.4,30.03,SE,146,2.0,3.0,44,0.00,,,0.00,Wunderground v.1.15,2013-01-21 16:20:00,
2013-01-21 11:30:00,31.8,12.8,30.02,South,178,2.0,6.0,45,0.00,,,0.00,Wunderground v.1.15,2013-01-21 16:30:00,
2013-01-21 11:40:00,32.1,13.1,30.02,South,184,4.0,4.0,45,0.00,,,0.00,Wunderground v.1.15,2013-01-21 16:40:00,
2013-01-21 11:50:00,32.2,14.2,30.01,SSE,150,3.0,4.0,47,0.00,,,0.00,Wunderground v.1.15,2013-01-21 16:50:00,
2013-01-21 12:00:00,31.2,12.8,30.01,South,180,3.0,7.0,46,0.00,,,-99.99,WeatherLink 6.0.2,2013-01-21 17:00:00,
2013-01-21 12:10:00,32.1,13.1,30.00,SSE,168,2.0,2.0,45,0.00,,,0.00,Wunderground v.1.15,2013-01-21 17:10:00,
2013-01-21 12:20:00,32.2,13.7,29.99,South,190,3.0,7.0,46,0.00,,,0.00,Wunderground v.1.15,2013-01-21 17:20:00,
2013-01-21 12:30:00,32.4,13.4,29.98,South,180,3.0,8.0,45,0.00,,,-99.99,WeatherLink 6.0.2,2013-01-21 17:30:00,
2013-01-21 12:40:00,32.3,13.3,29.98,SSW,192,3.0,5.0,45,0.00,,,0.00,Wunderground v.1.15,2013-01-21 17:40:00,
2013-01-21 12:50:00,31.7,12.8,29.97,South,169,2.0,2.0,45,0.00,,,0.00,Wunderground v.1.15,2013-01-21 17:50:00,
2013-01-21 13:00:00,31.2,13.3,29.96,SSE,165,3.0,3.0,47,0.00,,,0.00,Wunderground v.1.15,2013-01-21 18:00:00,
2013-01-21 13:10:00,31.1,13.2,29.96,South,181,2.0,3.0,47,0.00,,,0.00,Wunderground v.1.15,2013-01-21 18:10:00,
2013-01-21 13:20:00,31.1,12.7,29.95,ESE,104,2.0,3.0,46,0.00,,,0.00,Wunderground v.1.15,2013-01-21 18:20:00,
2013-01-21 13:30:00,31.2,13.3,29.95,South,177,2.0,2.0,47,0.00,,,0.00,Wunderground v.1.15,2013-01-21 18:30:00,
2013-01-21 13:40:00,32.5,13.0,29.95,SSE,163,3.0,3.0,44,0.00,,,0.00,Wunderground v.1.15,2013-01-21 18:40:00,
2013-01-21 13:50:00,32.1,13.1,29.95,SW,214,2.0,2.0,45,0.00,,,0.00,Wunderground v.1.15,2013-01-21 18:50:00,
2013-01-21 14:00:00,32.5,14.5,29.95,SW,230,3.0,3.0,47,0.00,,,0.00,Wunderground v.1.15,2013-01-21 19:00:00,
2013-01-21 14:05:00,33.2,15.6,29.95,South,180,4.0,4.0,48,0.00,,,0.00,Wunderground v.1.15,2013-01-21 19:05:00,
2013-01-21 14:10:00,33.5,14.4,29.95,South,182,4.0,4.0,45,0.00,,,0.00,Wunderground v.1.15,2013-01-21 19:10:00,
2013-01-21 14:20:00,32.8,13.8,29.94,SW,234,4.0,4.0,45,0.00,,,0.00,Wunderground v.1.15,2013-01-21 19:20:00,
2013-01-21 14:30:00,33.4,14.3,29.94,SW,235,4.0,4.0,45,0.00,,,0.00,Wunderground v.1.15,2013-01-21 19:30:00,
2013-01-21 14:40:00,33.3,14.7,29.94,South,188,4.0,6.0,46,0.00,,,0.00,Wunderground v.1.15,2013-01-21 19:40:00,
2013-01-21 14:50:00,33.0,14.9,29.94,SSW,205,3.0,3.0,47,0.00,,,0.00,Wunderground v.1.15,2013-01-21 19:50:00,
2013-01-21 15:00:00,32.7,16.1,29.93,South,185,3.0,5.0,50,0.00,,,0.00,Wunderground v.1.15,2013-01-21 20:00:00,
2013-01-21 15:10:00,32.5,16.8,29.93,SSW,197,4.0,4.0,52,0.00,,,0.00,Wunderground v.1.15,2013-01-21 20:10:00,
2013-01-21 15:20:00,32.6,16.9,29.93,SSW,211,5.0,5.0,52,0.00,,,0.00,Wunderground v.1.15,2013-01-21 20:20:00,
2013-01-21 15:30:00,32.3,17.1,29.92,SSW,202,4.0,11.0,53,0.00,,,-99.99,WeatherLink 6.0.2,2013-01-21 20:30:00,
2013-01-21 15:40:00,32.0,17.6,29.92,SSW,200,2.0,5.0,55,0.00,,,0.00,Wunderground v.1.15,2013-01-21 20:40:00,
2013-01-21 15:50:00,32.3,17.5,29.91,SW,230,4.0,4.0,54,0.00,,,0.00,Wunderground v.1.15,2013-01-21 20:50:00,
2013-01-21 16:00:00,31.7,18.2,29.91,South,173,2.0,2.0,57,0.00,,,0.00,Wunderground v.1.15,2013-01-21 21:00:00,
2013-01-21 16:10:00,32.3,17.9,29.90,SW,228,4.0,4.0,55,0.00,,,0.00,Wunderground v.1.15,2013-01-21 21:10:00,
2013-01-21 16:20:00,32.6,18.2,29.90,SSW,198,3.0,3.0,55,0.00,,,0.00,Wunderground v.1.15,2013-01-21 21:20:00,
2013-01-21 16:30:00,32.3,18.3,29.90,SW,229,3.0,3.0,56,0.00,,,0.00,Wunderground v.1.15,2013-01-21 21:30:00,
2013-01-21 16:40:00,31.2,18.1,29.90,WSW,238,1.0,2.0,58,0.00,,,0.00,Wunderground v.1.15,2013-01-21 21:40:00,
2013-01-21 16:50:00,30.4,17.4,29.90,SW,231,2.0,4.0,58,0.00,,,0.00,Wunderground v.1.15,2013-01-21 21:50:00,
2013-01-21 17:00:00,31.0,17.5,29.90,SSW,209,2.0,2.0,57,0.00,,,0.00,Wunderground v.1.15,2013-01-21 22:00:00,
2013-01-21 17:10:00,30.5,16.7,29.89,SW,236,1.0,1.0,56,0.00,,,0.00,Wunderground v.1.15,2013-01-21 22:10:00,
2013-01-21 17:20:00,30.3,16.9,29.90,WSW,238,0.0,0.0,57,0.00,,,0.00,Wunderground v.1.15,2013-01-21 22:20:00,
2013-01-21 17:30:00,30.3,16.9,29.89,WSW,238,1.0,2.0,57,0.00,,,0.00,Wunderground v.1.15,2013-01-21 22:30:00,
2013-01-21 17:40:00,30.6,17.2,29.89,WSW,240,2.0,2.0,57,0.00,,,0.00,Wunderground v.1.15,2013-01-21 22:40:00,
2013-01-21 17:50:00,30.7,17.3,29.89,WSW,238,2.0,2.0,57,0.00,,,0.00,Wunderground v.1.15,2013-01-21 22:50:00,
2013-01-21 18:00:00,30.4,17.0,29.89,WSW,247,2.0,4.0,57,0.00,,,-99.99,WeatherLink 6.0.2,2013-01-21 23:00:00,
2013-01-21 18:10:00,30.5,17.5,29.89,SSW,207,1.0,1.0,58,0.00,,,0.00,Wunderground v.1.15,2013-01-21 23:10:00,
2013-01-21 18:20:00,30.6,17.6,29.89,WSW,242,1.0,1.0,58,0.00,,,0.00,Wunderground v.1.15,2013-01-21 23:20:00,
2013-01-21 18:30:00,30.2,17.6,29.89,WSW,242,1.0,4.0,59,0.00,,,0.00,Wunderground v.1.15,2013-01-21 23:30:00,
2013-01-21 18:40:00,30.1,17.5,29.89,WSW,248,1.0,1.0,59,0.00,,,0.00,Wunderground v.1.15,2013-01-21 23:40:00,
2013-01-21 18:50:00,29.6,17.4,29.88,WSW,249,0.0,0.0,60,0.00,,,0.00,Wunderground v.1.15,2013-01-21 23:50:00,
2013-01-21 19:00:00,29.5,17.3,29.88,WSW,253,1.0,1.0,60,0.00,,,0.00,Wunderground v.1.15,2013-01-22 00:00:00,
2013-01-21 19:10:00,29.5,18.1,29.89,WSW,254,1.0,1.0,62,0.00,,,0.00,Wunderground v.1.15,2013-01-22 00:10:00,
2013-01-21 19:20:00,29.7,17.9,29.88,WSW,250,1.0,1.0,61,0.00,,,0.00,Wunderground v.1.15,2013-01-22 00:20:00,
2013-01-21 19:30:00,29.5,17.7,29.88,NNE,16,1.0,2.0,61,0.00,,,0.00,Wunderground v.1.15,2013-01-22 00:30:00,
2013-01-21 19:40:00,29.4,18.0,29.88,NNE,29,2.0,3.0,62,0.00,,,0.00,Wunderground v.1.15,2013-01-22 00:40:00,
2013-01-21 19:50:00,29.3,18.3,29.89,North,6,2.0,2.0,63,0.00,,,0.00,Wunderground v.1.15,2013-01-22 00:50:00,
2013-01-21 20:00:00,29.2,18.5,29.89,North,351,1.0,1.0,64,0.00,,,0.00,Wunderground v.1.15,2013-01-22 01:00:00,
2013-01-21 20:10:00,29.2,19.2,29.89,ENE,65,1.0,2.0,66,0.00,,,0.00,Wunderground v.1.15,2013-01-22 01:10:00,
2013-01-21 20:20:00,29.2,18.9,29.88,West,271,1.0,2.0,65,0.00,,,0.00,Wunderground v.1.15,2013-01-22 01:20:00,
2013-01-21 20:30:00,29.7,20.1,29.88,South,185,1.0,1.0,67,0.00,,,0.00,Wunderground v.1.15,2013-01-22 01:30:00,
2013-01-21 20:40:00,29.8,19.8,29.87,WSW,256,1.0,3.0,66,0.00,,,0.00,Wunderground v.1.15,2013-01-22 01:40:00,
2013-01-21 20:50:00,29.5,19.9,29.86,WSW,237,1.0,2.0,67,0.00,,,0.00,Wunderground v.1.15,2013-01-22 01:50:00,
2013-01-21 21:00:00,29.1,19.5,29.85,SW,234,1.0,1.0,67,0.00,,,0.00,Wunderground v.1.15,2013-01-22 02:00:00,
2013-01-21 21:10:00,28.8,19.6,29.85,WSW,256,0.0,0.0,68,0.00,,,0.00,Wunderground v.1.15,2013-01-22 02:10:00,
2013-01-21 21:20:00,28.8,19.9,29.86,South,180,0.0,0.0,69,0.00,,,0.00,Wunderground v.1.15,2013-01-22 02:20:00,
2013-01-21 21:30:00,28.9,20.0,29.86,SW,236,0.0,1.0,69,0.00,,,0.00,Wunderground v.1.15,2013-01-22 02:30:00,
2013-01-21 21:40:00,28.6,20.1,29.85,NW,308,1.0,1.0,70,0.00,,,0.00,Wunderground v.1.15,2013-01-22 02:40:00,
2013-01-21 21:50:00,28.5,20.3,29.85,ENE,58,0.0,0.0,71,0.00,,,0.00,Wunderground v.1.15,2013-01-22 02:50:00,
2013-01-21 22:00:00,28.2,20.3,29.84,North,1,0.0,0.0,72,0.00,,,0.00,Wunderground v.1.15,2013-01-22 03:00:00,
2013-01-21 22:10:00,28.2,20.0,29.84,NE,43,0.0,0.0,71,0.00,,,0.00,Wunderground v.1.15,2013-01-22 03:10:00,
2013-01-21 22:20:00,28.4,20.5,29.85,SSW,211,1.0,1.0,72,0.00,,,0.00,Wunderground v.1.15,2013-01-22 03:20:00,
2013-01-21 22:30:00,28.4,19.9,29.84,NE,45,1.0,4.0,70,0.00,,,-99.99,WeatherLink 6.0.2,2013-01-22 03:30:00,
2013-01-21 22:40:00,28.2,20.3,29.84,SE,145,1.0,1.0,72,0.00,,,0.00,Wunderground v.1.15,2013-01-22 03:40:00,
2013-01-21 22:50:00,27.9,20.0,29.84,West,276,1.0,1.0,72,0.00,,,0.00,Wunderground v.1.15,2013-01-22 03:50:00,
2013-01-21 23:00:00,27.9,20.0,29.84,South,172,1.0,3.0,72,0.00,,,0.00,Wunderground v.1.15,2013-01-22 04:00:00,
2013-01-21 23:10:00,28.1,19.9,29.83,SW,232,2.0,2.0,71,0.00,,,0.00,Wunderground v.1.15,2013-01-22 04:10:00,
2013-01-21 23:20:00,27.7,19.8,29.83,South,169,1.0,1.0,72,0.00,,,0.00,Wunderground v.1.15,2013-01-22 04:20:00,
2013-01-21 23:30:00,27.4,19.6,29.83,SSW,202,1.0,4.0,72,0.00,,,-99.99,WeatherLink 6.0.2,2013-01-22 04:30:00,
2013-01-21 23:40:00,27.1,19.6,29.83,South,180,1.0,1.0,73,0.00,,,0.00,Wunderground v.1.15,2013-01-22 04:40:00,
2013-01-21 23:50:00,26.7,18.9,29.82,SSW,204,0.0,0.0,72,0.00,,,0.00,Wunderground v.1.15,2013-01-22 04:50:00,